Time;durP1;ratioP1;P1;durP2;ratioP2;P2;SDS_P1;SDS_P2;PMS_P1;PMS_P2;Temp;Humidity;BMP_temperature;BMP_pressure;BME280_temperature;BME280_humidity;BME280_pressure;Samples;Min_cycle;Max_cycle;Signal;HPM_P1;HPM_P2
2021/09/22 00:02:38;;;;;;;;;;;;;;;;;;;;;
2021/09/22 00:05:04;;;;;;;1.10;1.00;;;20.70;57.70;;;;;;4968228;28;20039;-66
2021/09/22 00:32:05;;;;;;;1.40;1.30;;;20.60;57.70;;;;;;4835476;29;20037;-63
2021/09/22 00:34:31;;;;;;;1.17;1.02;;;20.60;57.70;;;;;;4877413;29;20051;-65
2021/09/22 00:36:57;;;;;;;1.45;1.35;;;20.60;57.70;;;;;;4941407;29;20411;-65
2021/09/22 00:39:23;;;;;;;1.77;1.67;;;20.60;57.70;;;;;;5000528;28;20397;-65
2021/09/22 00:41:48;;;;;;;1.30;1.20;;;20.60;57.70;;;;;;5009507;28;20473;-65
2021/09/22 00:44:14;;;;;;;1.33;1.20;;;20.60;57.70;;;;;;5024803;28;20053;-66
2021/09/22 00:46:40;;;;;;;1.38;1.27;;;20.60;57.70;;;;;;5043424;28;20029;-66
2021/09/22 00:49:06;;;;;;;1.30;1.20;;;20.60;57.70;;;;;;5043158;28;20049;-65
2021/09/22 00:51:32;;;;;;;1.40;1.30;;;20.70;57.70;;;;;;5036749;28;21282;-65
2021/09/22 00:53:58;;;;;;;1.40;1.30;;;20.70;57.70;;;;;;5049904;28;20411;-65
2021/09/22 00:56:24;;;;;;;1.20;1.10;;;20.60;57.60;;;;;;5036619;28;20033;-65
2021/09/22 00:58:50;;;;;;;1.20;1.10;;;20.60;57.60;;;;;;5033788;28;20099;-66
2021/09/22 01:01:17;;;;;;;1.30;1.20;;;20.70;57.70;;;;;;5049460;28;20028;-65
2021/09/22 01:03:42;;;;;;;1.40;1.30;;;20.60;57.60;;;;;;5032213;28;20041;-65
2021/09/22 01:06:09;;;;;;;2.17;1.40;;;20.60;57.60;;;;;;5039363;28;20041;-66
2021/09/22 01:08:35;;;;;;;1.58;1.42;;;20.60;57.60;;;;;;5050592;28;20029;-65
2021/09/22 01:11:01;;;;;;;1.27;1.17;;;20.70;57.70;;;;;;5039977;28;20040;-66
2021/09/22 01:13:27;;;;;;;1.25;1.15;;;20.70;57.70;;;;;;5032711;28;20133;-65
2021/09/22 01:15:53;;;;;;;1.35;1.25;;;20.70;57.60;;;;;;5044798;28;20550;-66
2021/09/22 01:18:22;;;;;;;1.30;1.20;;;20.70;57.60;;;;;;5046272;28;20041;-65
2021/09/22 01:20:56;;;;;;;1.30;1.20;;;20.60;57.60;;;;;;5036476;28;20068;-65
2021/09/22 01:23:23;;;;;;;1.40;1.30;;;20.60;57.60;;;;;;5047309;28;20040;-65
2021/09/22 01:25:50;;;;;;;2.10;1.90;;;20.60;57.60;;;;;;5028395;28;20080;-65
2021/09/22 01:28:20;;;;;;;1.52;1.40;;;20.60;57.60;;;;;;5013928;28;20069;-65
2021/09/22 01:30:47;;;;;;;1.70;1.35;;;20.60;57.60;;;;;;5035591;28;20084;-65
2021/09/22 01:33:14;;;;;;;1.42;1.33;;;20.60;57.60;;;;;;5021563;28;20396;-66
2021/09/22 01:35:43;;;;;;;1.52;1.38;;;20.60;57.60;;;;;;5042974;28;20096;-65
2021/09/22 01:38:13;;;;;;;1.50;1.40;;;20.60;57.60;;;;;;5043809;28;20548;-65
2021/09/22 01:40:40;;;;;;;2.38;1.27;;;20.60;57.60;;;;;;5032730;28;20061;-66
2021/09/22 01:43:06;;;;;;;1.38;1.27;;;20.60;57.50;;;;;;5033937;28;20380;-66
2021/09/22 01:45:32;;;;;;;1.73;1.50;;;20.60;57.60;;;;;;5047710;28;20041;-65
2021/09/22 01:47:58;;;;;;;1.40;1.30;;;20.60;57.60;;;;;;5014000;28;20045;-65
2021/09/22 01:50:25;;;;;;;2.13;1.52;;;20.60;57.60;;;;;;5033097;28;20026;-65
2021/09/22 01:52:52;;;;;;;1.92;1.70;;;20.60;57.60;;;;;;5039751;28;20418;-65
2021/09/22 01:55:20;;;;;;;1.35;1.25;;;20.60;57.50;;;;;;5034094;28;20037;-66
2021/09/22 01:57:47;;;;;;;1.63;1.50;;;20.50;57.50;;;;;;5029936;28;20084;-65
2021/09/22 02:00:13;;;;;;;1.40;1.30;;;20.60;57.60;;;;;;5044227;28;20044;-65
2021/09/22 02:02:39;;;;;;;1.67;1.25;;;20.60;57.50;;;;;;5037292;28;20120;-65
2021/09/22 02:05:05;;;;;;;1.35;1.25;;;20.60;57.60;;;;;;5030787;28;20120;-66
2021/09/22 02:07:32;;;;;;;1.10;1.10;;;20.50;57.50;;;;;;5042195;28;20037;-65
2021/09/22 02:09:59;;;;;;;1.45;1.35;;;20.50;57.50;;;;;;5046217;28;20072;-66
2021/09/22 02:12:25;;;;;;;1.20;1.10;;;20.50;57.50;;;;;;5041713;28;20064;-65
2021/09/22 02:14:51;;;;;;;1.40;1.30;;;20.50;57.50;;;;;;5039856;28;20124;-65
2021/09/22 02:17:17;;;;;;;1.85;1.33;;;20.50;57.50;;;;;;5011828;28;20203;-63
2021/09/22 02:19:42;;;;;;;1.23;1.13;;;20.50;57.50;;;;;;5043045;28;20041;-64
2021/09/22 02:22:08;;;;;;;1.42;1.30;;;20.50;57.50;;;;;;5029575;28;20049;-65
2021/09/22 02:24:33;;;;;;;1.40;1.30;;;20.50;57.50;;;;;;5024776;28;20036;-66
2021/09/22 02:26:59;;;;;;;1.30;1.20;;;20.50;57.50;;;;;;5035029;28;20037;-65
2021/09/22 02:29:25;;;;;;;1.50;1.40;;;20.50;57.50;;;;;;5035379;28;20048;-65
2021/09/22 02:31:50;;;;;;;1.45;1.33;;;20.50;57.50;;;;;;5043396;28;20136;-65
2021/09/22 02:34:16;;;;;;;1.50;1.40;;;20.50;57.50;;;;;;5025847;28;20068;-65
2021/09/22 02:36:42;;;;;;;1.65;1.45;;;20.50;57.50;;;;;;5044550;28;20068;-65
2021/09/22 02:39:09;;;;;;;1.45;1.35;;;20.50;57.50;;;;;;5016463;28;20042;-65
2021/09/22 02:41:35;;;;;;;1.50;1.40;;;20.50;57.50;;;;;;5027501;28;20139;-65
2021/09/22 02:44:01;;;;;;;1.45;1.35;;;20.50;57.50;;;;;;5029102;28;20044;-65
2021/09/22 02:46:27;;;;;;;1.30;1.20;;;20.40;57.40;;;;;;5044514;28;20048;-65
2021/09/22 02:48:53;;;;;;;1.60;1.50;;;20.40;57.50;;;;;;5014596;28;20127;-64
2021/09/22 02:51:20;;;;;;;1.50;1.38;;;20.50;57.50;;;;;;5013093;28;20178;-66
2021/09/22 02:53:45;;;;;;;1.40;1.30;;;20.50;57.50;;;;;;5047138;28;20033;-66
2021/09/22 02:56:11;;;;;;;1.50;1.40;;;20.40;57.50;;;;;;5040985;28;20388;-65
2021/09/22 02:58:37;;;;;;;1.92;1.60;;;20.40;57.50;;;;;;5042977;28;20040;-66
2021/09/22 03:01:02;;;;;;;1.60;1.50;;;20.40;57.50;;;;;;5045479;28;20049;-66
2021/09/22 03:03:29;;;;;;;1.40;1.30;;;20.40;57.50;;;;;;5041588;28;20452;-65
2021/09/22 03:05:55;;;;;;;1.33;1.23;;;20.40;57.50;;;;;;5047402;28;20515;-65
2021/09/22 03:08:21;;;;;;;1.27;1.17;;;20.40;57.50;;;;;;5033830;28;20176;-66
2021/09/22 03:10:46;;;;;;;1.27;1.17;;;20.40;58.10;;;;;;5034255;28;20602;-65
2021/09/22 03:13:12;;;;;;;1.52;1.42;;;20.40;57.50;;;;;;5039040;28;20037;-66
2021/09/22 03:15:37;;;;;;;1.40;1.30;;;20.40;57.50;;;;;;5044665;28;20057;-65
2021/09/22 03:18:03;;;;;;;1.40;1.30;;;20.40;57.50;;;;;;5048337;28;20040;-66
2021/09/22 03:20:29;;;;;;;1.67;1.58;;;20.40;57.50;;;;;;5007603;28;20171;-65
2021/09/22 03:22:54;;;;;;;1.70;1.60;;;20.40;57.50;;;;;;5025859;28;20075;-65
2021/09/22 03:25:20;;;;;;;1.70;1.50;;;20.40;57.50;;;;;;5048143;28;20575;-65
2021/09/22 03:27:46;;;;;;;1.48;1.38;;;20.40;57.50;;;;;;5044149;28;20119;-66
2021/09/22 03:30:12;;;;;;;1.58;1.48;;;20.40;57.50;;;;;;5042664;28;20116;-65
2021/09/22 03:32:39;;;;;;;1.50;1.40;;;20.40;57.50;;;;;;5042250;28;20039;-65
2021/09/22 03:35:05;;;;;;;1.40;1.30;;;20.40;57.50;;;;;;5032461;28;20037;-64
2021/09/22 03:37:31;;;;;;;1.50;1.40;;;20.40;57.50;;;;;;5034463;28;20045;-65
2021/09/22 03:39:56;;;;;;;1.40;1.30;;;20.40;57.50;;;;;;5039307;28;20033;-65
2021/09/22 03:42:22;;;;;;;1.55;1.45;;;20.40;57.50;;;;;;5033864;28;20037;-65
2021/09/22 03:44:48;;;;;;;1.50;1.40;;;20.40;57.50;;;;;;5045105;28;20383;-65
2021/09/22 03:47:13;;;;;;;1.45;1.35;;;20.40;57.50;;;;;;5047131;28;20049;-65
2021/09/22 03:49:39;;;;;;;1.75;1.50;;;20.30;57.40;;;;;;5040395;28;20520;-66
2021/09/22 03:52:05;;;;;;;1.48;1.38;;;20.40;57.50;;;;;;5048102;28;20029;-65
2021/09/22 03:54:31;;;;;;;1.50;1.40;;;20.30;57.40;;;;;;5023389;28;20060;-65
2021/09/22 03:56:56;;;;;;;1.52;1.42;;;20.40;57.50;;;;;;5029551;28;20037;-65
2021/09/22 03:59:22;;;;;;;1.65;1.50;;;20.30;57.50;;;;;;5046689;28;20116;-65
2021/09/22 04:01:48;;;;;;;2.47;1.50;;;20.30;57.50;;;;;;5045359;28;20025;-65
2021/09/22 04:04:13;;;;;;;1.30;1.20;;;20.30;57.50;;;;;;5050936;28;20063;-65
2021/09/22 04:06:40;;;;;;;1.63;1.52;;;20.30;57.40;;;;;;5051687;28;20510;-65
2021/09/22 04:09:10;;;;;;;1.52;1.42;;;20.30;57.40;;;;;;5050362;28;20056;-65
2021/09/22 04:11:35;;;;;;;1.80;1.70;;;20.30;57.50;;;;;;5038645;28;21732;-65
2021/09/22 04:18:32;;;;;;;1.38;1.27;;;20.30;57.50;;;;;;4919804;28;20054;-64
2021/09/22 05:20:09;;;;;;;1.45;1.35;;;20.10;57.70;;;;;;4804425;29;20523;-64
2021/09/22 05:22:35;;;;;;;1.90;1.70;;;20.10;57.80;;;;;;4802392;29;20058;-63
2021/09/22 05:28:21;;;;;;;1.60;1.40;;;20.10;57.70;;;;;;4792380;29;20510;-63
2021/09/22 05:31:28;;;;;;;1.45;1.35;;;20.10;57.70;;;;;;4890700;29;20574;-62
2021/09/22 05:44:12;;;;;;;1.88;1.33;;;20.10;57.70;;;;;;4866749;29;20404;-63
2021/09/22 05:46:38;;;;;;;1.58;1.48;;;20.00;57.70;;;;;;4873402;29;20041;-63
2021/09/22 05:49:05;;;;;;;1.60;1.50;;;20.10;57.70;;;;;;4978423;28;20128;-63
2021/09/22 05:51:44;;;;;;;2.00;1.70;;;20.10;57.60;;;;;;5032463;28;20077;-63
2021/09/22 05:54:45;;;;;;;2.00;1.67;;;20.10;57.70;;;;;;5013012;28;20712;-64
2021/09/22 06:00:43;;;;;;;;;;;;;;;;;;;;;
2021/09/22 06:16:08;;;;;;;2.30;1.90;;;20.00;57.50;;;;;;4891481;29;20044;-63
2021/09/22 06:35:50;;;;;;;2.25;2.03;;;20.00;57.30;;;;;;4874504;29;20120;-64
2021/09/22 07:13:49;;;;;;;2.33;2.13;;;20.00;57.30;;;;;;4926493;29;20170;-64
2021/09/22 07:23:30;;;;;;;2.13;1.90;;;20.00;57.40;;;;;;5010576;28;20053;-64
2021/09/22 07:29:21;;;;;;;2.17;1.98;;;20.00;57.50;;;;;;5003618;28;20563;-66
2021/09/22 07:31:46;;;;;;;2.80;2.50;;;20.00;57.40;;;;;;5009743;28;20030;-66
2021/09/22 07:34:12;;;;;;;2.60;2.33;;;20.00;57.50;;;;;;5009262;28;20042;-66
2021/09/22 07:36:38;;;;;;;3.00;2.20;;;20.00;57.50;;;;;;5009964;28;20083;-67
2021/09/22 07:39:04;;;;;;;2.35;2.15;;;20.00;57.50;;;;;;5008873;28;20497;-66
2021/09/22 07:41:30;;;;;;;2.30;2.00;;;20.00;57.50;;;;;;5008716;28;20040;-66
2021/09/22 07:43:55;;;;;;;2.40;2.20;;;20.00;57.50;;;;;;5007946;28;20046;-66
2021/09/22 07:46:21;;;;;;;2.33;2.03;;;20.10;57.50;;;;;;5004701;28;20069;-65
2021/09/22 07:48:47;;;;;;;2.53;1.95;;;20.10;58.20;;;;;;5010084;28;20458;-67
2021/09/22 07:55:39;;;;;;;2.28;1.95;;;20.10;57.60;;;;;;4905264;29;20111;-64
2021/09/22 07:58:47;;;;;;;2.08;1.88;;;20.10;57.50;;;;;;4924135;28;20053;-63
2021/09/22 08:11:47;;;;;;;2.03;1.83;;;20.10;57.70;;;;;;4904850;29;20471;-62
2021/09/22 08:14:13;;;;;;;2.75;2.40;;;20.10;57.80;;;;;;4911771;28;20071;-69
2021/09/22 08:16:38;;;;;;;2.55;2.30;;;20.10;57.80;;;;;;5014857;28;20489;-69
2021/09/22 08:19:13;;;;;;;2.20;2.00;;;20.10;57.80;;;;;;5027759;28;20101;-63
2021/09/22 08:21:39;;;;;;;2.78;2.47;;;20.10;57.90;;;;;;5028745;28;20037;-59
2021/09/22 08:24:05;;;;;;;3.70;2.55;;;20.20;58.40;;;;;;5029267;28;20052;-58
2021/09/22 08:26:31;;;;;;;2.92;2.60;;;20.20;58.00;;;;;;5026268;28;20057;-58
2021/09/22 08:28:57;;;;;;;3.65;2.72;;;20.20;57.90;;;;;;5034157;28;20125;-58
2021/09/22 08:31:23;;;;;;;3.30;2.88;;;20.20;57.90;;;;;;5029007;28;20069;-58
2021/09/22 08:33:48;;;;;;;2.92;2.53;;;20.20;58.00;;;;;;5025040;28;20127;-57
2021/09/22 08:36:14;;;;;;;2.80;2.60;;;20.30;58.10;;;;;;5025442;28;20049;-56
2021/09/22 08:38:40;;;;;;;4.18;3.10;;;20.20;58.10;;;;;;5030977;28;20120;-58
2021/09/22 08:41:05;;;;;;;3.45;2.80;;;20.30;58.20;;;;;;5027894;28;20044;-57
2021/09/22 08:43:32;;;;;;;3.03;2.60;;;20.30;58.20;;;;;;5039858;28;20538;-59
2021/09/22 08:45:58;;;;;;;3.35;2.85;;;20.30;58.20;;;;;;5032973;28;20033;-59
2021/09/22 08:48:24;;;;;;;3.40;2.90;;;20.30;58.20;;;;;;5034134;28;20029;-58
2021/09/22 08:50:50;;;;;;;2.97;2.60;;;20.30;58.30;;;;;;5024511;28;20081;-57
2021/09/22 08:53:16;;;;;;;2.80;2.50;;;20.30;58.30;;;;;;5033136;28;20045;-58
2021/09/22 08:55:42;;;;;;;3.10;2.80;;;20.40;58.30;;;;;;5008551;28;20049;-58
2021/09/22 08:58:08;;;;;;;3.50;2.65;;;20.40;58.30;;;;;;5030334;28;20045;-58
2021/09/22 09:00:34;;;;;;;2.88;2.60;;;20.40;58.30;;;;;;5028808;28;20144;-58
2021/09/22 09:02:59;;;;;;;2.90;2.30;;;20.40;58.40;;;;;;5032084;28;20526;-57
2021/09/22 09:05:25;;;;;;;2.40;2.08;;;20.40;58.40;;;;;;5028985;28;20042;-58
2021/09/22 09:08:02;;;;;;;2.50;2.25;;;20.40;58.40;;;;;;5033449;28;20155;-58
2021/09/22 09:10:31;;;;;;;2.58;2.30;;;20.40;58.40;;;;;;5012428;28;20412;-58
2021/09/22 09:13:10;;;;;;;3.10;2.63;;;20.40;58.30;;;;;;5028168;28;20040;-57
2021/09/22 09:15:41;;;;;;;2.90;2.35;;;20.40;58.40;;;;;;5026502;28;20043;-58
2021/09/22 09:18:17;;;;;;;2.38;2.17;;;20.50;58.40;;;;;;5029623;28;20506;-58
2021/09/22 09:20:46;;;;;;;2.72;2.00;;;20.50;58.40;;;;;;5031015;28;20064;-57
2021/09/22 09:23:14;;;;;;;2.28;2.00;;;20.50;58.40;;;;;;5029230;28;20030;-58
2021/09/22 09:25:59;;;;;;;2.88;2.05;;;20.50;58.40;;;;;;5029664;28;20639;-58
2021/09/22 09:28:29;;;;;;;2.05;1.90;;;20.50;58.40;;;;;;5032713;28;20029;-58
2021/09/22 09:30:57;;;;;;;2.28;1.98;;;20.50;58.40;;;;;;5031382;28;20046;-58
2021/09/22 09:33:33;;;;;;;2.00;1.88;;;20.50;58.30;;;;;;5028394;28;20044;-59
2021/09/22 09:36:24;;;;;;;1.95;1.77;;;20.60;58.40;;;;;;5027175;28;20030;-58
2021/09/22 09:39:07;;;;;;;2.47;2.13;;;20.60;58.30;;;;;;5028829;28;20048;-58
2021/09/22 09:41:48;;;;;;;;;;;20.60;58.30;;;;;;5030408;28;20531;-58
2021/09/22 09:44:17;;;;;;;1.58;1.45;;;20.60;58.30;;;;;;5029140;28;19917;-58
2021/09/22 09:46:43;;;;;;;3.03;2.10;;;20.60;58.30;;;;;;5028639;28;20061;-58
2021/09/22 09:49:12;;;;;;;1.63;1.52;;;20.60;58.90;;;;;;5034350;28;20041;-57
2021/09/22 09:51:49;;;;;;;2.17;1.98;;;20.70;58.30;;;;;;5031014;28;20458;-59
2021/09/22 09:54:14;;;;;;;1.98;1.70;;;20.70;58.30;;;;;;5026085;28;20132;-56
2021/09/22 09:56:40;;;;;;;2.10;1.90;;;20.70;58.20;;;;;;5027635;28;20124;-58
2021/09/22 09:59:07;;;;;;;3.95;2.13;;;20.70;58.20;;;;;;5012375;28;20463;-59
2021/09/22 10:01:36;;;;;;;2.10;1.88;;;20.70;58.20;;;;;;5027419;28;20803;-57
2021/09/22 10:04:04;;;;;;;2.05;1.55;;;20.80;58.20;;;;;;5029762;28;20076;-57
2021/09/22 10:06:30;;;;;;;1.95;1.65;;;20.80;58.20;;;;;;5028361;28;20097;-57
2021/09/22 10:08:56;;;;;;;2.20;1.98;;;20.80;58.10;;;;;;5031172;28;20560;-58
2021/09/22 10:11:22;;;;;;;1.73;1.50;;;20.80;58.10;;;;;;5030681;28;20750;-58
2021/09/22 10:13:49;;;;;;;1.95;1.73;;;20.80;58.10;;;;;;5011969;28;20041;-58
2021/09/22 10:16:16;;;;;;;1.73;1.63;;;20.80;58.00;;;;;;5028381;28;20068;-59
2021/09/22 10:18:42;;;;;;;1.58;1.48;;;20.90;58.00;;;;;;5029490;28;20050;-58
2021/09/22 10:21:08;;;;;;;1.70;1.60;;;20.90;58.00;;;;;;5029563;28;20060;-58
2021/09/22 10:23:34;;;;;;;2.42;1.60;;;20.90;58.00;;;;;;5009864;28;20113;-59
2021/09/22 10:26:01;;;;;;;1.77;1.52;;;20.90;58.00;;;;;;5029125;28;20128;-58
2021/09/22 10:28:42;;;;;;;1.40;1.30;;;20.90;58.10;;;;;;5029992;28;20038;-58
2021/09/22 10:31:35;;;;;;;1.50;1.40;;;21.00;58.00;;;;;;5028097;28;20187;-58
2021/09/22 10:34:01;;;;;;;1.95;1.60;;;21.00;58.00;;;;;;5008471;28;20049;-59
2021/09/22 10:36:41;;;;;;;1.55;1.45;;;21.00;58.00;;;;;;5029066;28;20048;-59
2021/09/22 10:39:22;;;;;;;1.38;1.27;;;21.00;58.00;;;;;;5010457;28;20412;-59
2021/09/22 10:41:48;;;;;;;1.30;1.20;;;21.00;58.00;;;;;;5029356;28;20029;-59
2021/09/22 10:44:33;;;;;;;1.75;1.48;;;21.00;58.00;;;;;;5026637;28;20044;-59
2021/09/22 10:47:22;;;;;;;1.75;1.40;;;21.10;58.00;;;;;;5026634;28;20037;-59
2021/09/22 10:49:48;;;;;;;1.83;1.67;;;21.00;58.00;;;;;;5024307;28;20145;-59
2021/09/22 10:52:29;;;;;;;1.65;1.55;;;21.00;57.90;;;;;;5033872;28;20116;-59
2021/09/22 10:55:06;;;;;;;1.40;1.30;;;21.10;58.00;;;;;;5031900;28;20041;-59
2021/09/22 10:57:31;;;;;;;1.70;1.60;;;21.10;58.00;;;;;;5027463;28;20096;-59
2021/09/22 11:00:11;;;;;;;1.38;1.27;;;21.10;58.00;;;;;;5015591;28;20053;-59
2021/09/22 11:02:54;;;;;;;1.92;1.75;;;21.10;58.00;;;;;;5029424;28;20030;-59
2021/09/22 11:05:38;;;;;;;1.52;1.40;;;21.10;58.00;;;;;;5030966;28;20306;-59
2021/09/22 11:08:08;;;;;;;1.70;1.60;;;21.10;58.00;;;;;;5027553;28;20099;-60
2021/09/22 11:10:50;;;;;;;1.83;1.52;;;21.10;57.90;;;;;;5009800;28;20071;-59
2021/09/22 11:13:19;;;;;;;1.52;1.42;;;21.20;58.00;;;;;;5026538;28;20390;-59
2021/09/22 11:15:49;;;;;;;1.40;1.30;;;21.20;58.00;;;;;;5025658;28;20459;-59
2021/09/22 11:18:17;;;;;;;1.67;1.40;;;21.20;58.00;;;;;;5026172;28;20046;-59
2021/09/22 11:20:52;;;;;;;1.50;1.40;;;21.20;58.10;;;;;;5026583;28;20421;-59
2021/09/22 11:23:21;;;;;;;1.58;1.40;;;21.20;58.00;;;;;;5026419;28;20476;-60
2021/09/22 11:25:46;;;;;;;1.80;1.70;;;21.20;58.10;;;;;;5016487;28;20034;-59
2021/09/22 11:28:12;;;;;;;1.60;1.50;;;21.30;58.10;;;;;;5027368;28;20104;-59
2021/09/22 11:30:40;;;;;;;1.42;1.33;;;21.20;58.70;;;;;;5027500;28;20045;-59
2021/09/22 11:33:05;;;;;;;1.83;1.60;;;21.30;58.10;;;;;;5025820;28;20084;-59
2021/09/22 11:35:31;;;;;;;1.40;1.30;;;21.30;58.10;;;;;;5030469;28;20064;-59
2021/09/22 11:37:59;;;;;;;1.50;1.40;;;21.30;58.00;;;;;;5029994;28;20492;-59
2021/09/22 11:40:31;;;;;;;1.60;1.50;;;21.30;58.00;;;;;;5026652;28;20037;-59
2021/09/22 11:43:15;;;;;;;1.70;1.60;;;21.30;58.00;;;;;;5025427;28;20091;-59
2021/09/22 11:45:47;;;;;;;1.80;1.60;;;21.40;58.10;;;;;;5025540;28;20033;-59
2021/09/22 11:48:15;;;;;;;1.67;1.58;;;21.30;58.00;;;;;;5026647;28;20070;-60
2021/09/22 11:50:46;;;;;;;1.60;1.45;;;21.30;58.00;;;;;;5027438;28;20049;-59
2021/09/22 11:53:15;;;;;;;2.00;1.80;;;21.40;58.00;;;;;;5016539;28;20046;-59
2021/09/22 11:55:42;;;;;;;1.88;1.70;;;21.40;58.00;;;;;;5012697;28;20045;-59
2021/09/22 11:58:13;;;;;;;2.30;2.10;;;21.40;58.00;;;;;;5013450;28;20208;-59
2021/09/22 12:00:40;;;;;;;2.08;1.95;;;21.40;58.00;;;;;;5011413;28;20060;-59
2021/09/22 12:03:11;;;;;;;2.10;1.90;;;21.40;58.00;;;;;;4991382;28;20038;-59
2021/09/22 12:05:41;;;;;;;1.60;1.50;;;21.40;57.90;;;;;;5011883;28;20037;-59
2021/09/22 12:08:07;;;;;;;3.00;2.00;;;21.40;57.90;;;;;;5009298;28;21155;-59
2021/09/22 12:10:33;;;;;;;1.48;1.38;;;21.40;57.90;;;;;;5004933;28;20049;-59
2021/09/22 12:13:04;;;;;;;2.10;1.70;;;21.50;57.90;;;;;;5008133;28;20034;-59
2021/09/22 12:15:34;;;;;;;2.45;1.50;;;21.40;57.90;;;;;;5005114;28;20593;-59
2021/09/22 12:18:00;;;;;;;1.67;1.58;;;21.50;57.90;;;;;;5014286;28;20034;-59
2021/09/22 12:20:28;;;;;;;1.90;1.70;;;21.50;58.50;;;;;;5018379;28;20038;-59
2021/09/22 12:23:02;;;;;;;1.63;1.52;;;21.50;57.90;;;;;;5018954;28;20044;-59
2021/09/22 12:25:30;;;;;;;1.95;1.50;;;21.50;58.50;;;;;;5010881;28;20127;-59
2021/09/22 12:27:56;;;;;;;1.67;1.58;;;21.50;57.90;;;;;;5017592;28;20033;-60
2021/09/22 12:30:36;;;;;;;2.85;2.00;;;21.50;57.90;;;;;;5012973;28;20112;-59
2021/09/22 12:33:05;;;;;;;2.80;1.65;;;21.50;57.90;;;;;;5014729;28;20108;-59
2021/09/22 12:35:35;;;;;;;2.35;1.80;;;21.50;57.90;;;;;;5011068;28;20042;-59
2021/09/22 12:38:03;;;;;;;2.15;1.83;;;21.50;57.90;;;;;;5014200;28;20085;-59
2021/09/22 12:40:40;;;;;;;1.73;1.63;;;21.60;58.00;;;;;;5014290;28;20493;-59
2021/09/22 12:43:22;;;;;;;1.95;1.40;;;21.60;57.90;;;;;;5012644;28;20057;-59
2021/09/22 12:45:48;;;;;;;;;;;21.60;57.90;;;;;;5009626;28;20030;-60
2021/09/22 12:48:26;;;;;;;1.52;1.42;;;21.60;57.90;;;;;;5012018;28;19913;-59
2021/09/22 12:50:53;;;;;;;1.35;1.25;;;21.60;57.90;;;;;;5004997;28;20053;-59
2021/09/22 12:53:20;;;;;;;2.33;1.60;;;21.60;57.90;;;;;;5031313;28;20044;-59
2021/09/22 12:55:46;;;;;;;1.45;1.35;;;21.60;57.90;;;;;;5036084;28;20112;-59
2021/09/22 12:58:15;;;;;;;1.65;1.50;;;21.60;57.90;;;;;;5033231;28;20052;-59
2021/09/22 13:00:40;;;;;;;2.92;1.67;;;21.60;57.90;;;;;;5041357;28;20076;-59
2021/09/22 13:03:12;;;;;;;1.67;1.58;;;21.60;57.90;;;;;;5034885;28;20073;-59
2021/09/22 13:05:39;;;;;;;1.60;1.50;;;21.70;58.00;;;;;;5035272;28;20186;-59
2021/09/22 13:08:13;;;;;;;2.17;1.80;;;21.60;57.90;;;;;;5030484;28;20365;-61
2021/09/22 13:10:59;;;;;;;1.77;1.67;;;21.60;57.90;;;;;;5037894;28;20087;-58
2021/09/22 13:13:33;;;;;;;1.70;1.60;;;21.70;57.90;;;;;;5032010;28;20040;-58
2021/09/22 13:16:10;;;;;;;1.55;1.45;;;21.70;57.90;;;;;;5032480;28;20564;-57
2021/09/22 13:18:36;;;;;;;2.15;1.95;;;21.70;57.90;;;;;;5029112;28;20533;-58
2021/09/22 13:21:01;;;;;;;2.95;1.85;;;21.70;57.90;;;;;;5014988;28;20068;-59
2021/09/22 13:23:29;;;;;;;2.72;1.70;;;21.70;57.90;;;;;;5033016;28;20116;-58
2021/09/22 13:25:56;;;;;;;1.92;1.80;;;21.70;57.80;;;;;;5029396;28;20508;-58
2021/09/22 13:28:22;;;;;;;2.15;1.85;;;21.70;57.90;;;;;;5029709;28;20052;-58
2021/09/22 13:30:48;;;;;;;3.20;1.90;;;21.70;57.90;;;;;;5028223;28;20192;-59
2021/09/22 13:33:14;;;;;;;2.03;1.55;;;21.70;57.90;;;;;;5033097;28;20120;-58
2021/09/22 13:35:40;;;;;;;1.75;1.65;;;21.70;57.80;;;;;;5028949;28;20049;-58
2021/09/22 13:38:06;;;;;;;1.60;1.50;;;21.70;57.90;;;;;;5032916;28;20036;-58
2021/09/22 13:40:31;;;;;;;1.98;1.63;;;21.70;57.80;;;;;;5035568;28;20058;-59
2021/09/22 13:42:57;;;;;;;1.95;1.80;;;21.70;57.80;;;;;;5015165;28;20382;-58
2021/09/22 13:45:23;;;;;;;2.35;1.67;;;21.70;57.80;;;;;;5028767;28;20042;-59
2021/09/22 13:47:48;;;;;;;2.92;1.73;;;21.70;57.80;;;;;;5030462;28;21637;-58
2021/09/22 13:50:14;;;;;;;1.80;1.67;;;21.80;57.90;;;;;;5010992;28;20044;-59
2021/09/22 13:52:40;;;;;;;1.85;1.58;;;21.80;57.90;;;;;;5021279;28;20604;-58
2021/09/22 13:55:06;;;;;;;2.17;1.95;;;21.80;57.90;;;;;;5006070;28;20377;-58
2021/09/22 13:57:32;;;;;;;3.50;1.85;;;21.80;57.90;;;;;;4998531;28;20037;-58
2021/09/22 13:59:57;;;;;;;2.30;1.77;;;21.70;57.80;;;;;;5012012;28;20088;-59
2021/09/22 14:02:23;;;;;;;1.58;1.48;;;21.70;57.80;;;;;;5002562;28;20592;-58
2021/09/22 14:04:49;;;;;;;1.88;1.70;;;21.80;57.80;;;;;;5011743;28;20460;-59
2021/09/22 14:07:17;;;;;;;3.60;3.10;;;21.80;57.90;;;;;;4999598;28;20037;-59
2021/09/22 14:09:43;;;;;;;6.40;3.33;;;21.80;57.20;;;;;;5008534;28;20488;-58
2021/09/22 14:12:09;;;;;;;6.80;4.30;;;21.80;56.80;;;;;;5004713;28;20037;-58
2021/09/22 14:14:35;;;;;;;3.90;3.17;;;21.80;56.10;;;;;;5009564;28;20666;-60
2021/09/22 14:17:00;;;;;;;4.95;3.60;;;21.80;56.20;;;;;;5009652;28;20042;-61
2021/09/22 14:19:26;;;;;;;4.03;3.20;;;21.80;56.20;;;;;;5010948;28;20121;-62
2021/09/22 14:21:53;;;;;;;4.78;3.45;;;21.80;56.20;;;;;;5013013;28;20272;-61
2021/09/22 14:24:19;;;;;;;6.35;4.50;;;21.80;56.00;;;;;;5004357;28;20034;-61
2021/09/22 14:26:45;;;;;;;4.70;3.35;;;21.80;55.30;;;;;;5010625;28;20057;-60
2021/09/22 14:29:11;;;;;;;5.10;3.45;;;21.80;55.60;;;;;;5014354;28;20084;-62
2021/09/22 14:31:37;;;;;;;5.20;3.72;;;21.80;55.60;;;;;;5010653;28;20069;-61
2021/09/22 14:34:03;;;;;;;5.25;4.30;;;21.80;55.30;;;;;;5010218;28;20038;-61
2021/09/22 14:36:29;;;;;;;3.83;3.40;;;21.80;55.10;;;;;;5015695;28;20354;-62
2021/09/22 14:38:54;;;;;;;4.13;3.17;;;21.80;55.10;;;;;;5008261;28;20555;-65
2021/09/22 14:41:20;;;;;;;4.38;3.10;;;21.80;55.20;;;;;;5005241;28;21137;-64
2021/09/22 14:43:46;;;;;;;5.43;4.03;;;21.80;55.30;;;;;;5008791;28;20129;-64
2021/09/22 14:46:12;;;;;;;4.72;4.32;;;21.80;54.80;;;;;;5018051;28;20399;-62
2021/09/22 14:48:37;;;;;;;4.40;3.83;;;21.80;54.50;;;;;;5006621;28;20076;-62
2021/09/22 14:51:03;;;;;;;4.28;3.78;;;21.80;54.60;;;;;;5003058;28;20564;-61
2021/09/22 14:53:29;;;;;;;5.85;3.92;;;21.80;54.50;;;;;;5020716;28;20073;-62
2021/09/22 14:55:55;;;;;;;4.35;3.50;;;21.80;54.40;;;;;;5034322;28;20091;-61
2021/09/22 14:58:50;;;;;;;4.93;3.88;;;21.80;54.50;;;;;;5027714;28;20046;-61
2021/09/22 15:01:16;;;;;;;2.80;2.60;;;21.80;54.50;;;;;;5031232;28;20686;-61
2021/09/22 15:03:42;;;;;;;4.63;2.78;;;21.80;54.70;;;;;;5031735;28;20124;-62
2021/09/22 15:06:07;;;;;;;4.00;2.65;;;21.80;54.90;;;;;;5030438;28;20037;-63
2021/09/22 15:08:43;;;;;;;6.95;4.35;;;21.80;55.00;;;;;;5033214;28;20119;-60
2021/09/22 15:11:08;;;;;;;3.40;3.10;;;21.80;54.70;;;;;;4998509;28;20469;-59
2021/09/22 15:13:34;;;;;;;3.30;3.00;;;21.80;54.80;;;;;;5030143;28;20072;-59
2021/09/22 15:16:00;;;;;;;5.22;3.85;;;21.80;54.80;;;;;;5032676;28;20044;-57
2021/09/22 15:18:29;;;;;;;4.53;3.35;;;21.80;54.40;;;;;;5033999;28;20049;-59
2021/09/22 15:20:59;;;;;;;2.85;2.45;;;21.80;54.50;;;;;;5040082;28;20544;-58
2021/09/22 15:23:26;;;;;;;4.75;2.50;;;21.80;54.90;;;;;;5013252;28;20034;-58
2021/09/22 15:25:53;;;;;;;3.15;2.55;;;21.80;55.20;;;;;;5028086;28;20128;-59
2021/09/22 15:28:18;;;;;;;2.65;2.22;;;21.80;55.30;;;;;;5014500;28;20033;-60
2021/09/22 15:30:44;;;;;;;2.33;2.03;;;21.80;55.40;;;;;;5030684;28;20037;-60
2021/09/22 15:33:11;;;;;;;2.15;1.88;;;21.90;55.50;;;;;;5034920;28;20041;-59
2021/09/22 15:35:37;;;;;;;3.38;2.00;;;21.90;55.50;;;;;;5028980;28;20478;-59
2021/09/22 15:38:03;;;;;;;2.28;2.00;;;22.00;55.60;;;;;;5032574;28;20029;-60
2021/09/22 15:40:29;;;;;;;2.72;1.90;;;22.00;55.60;;;;;;5029661;28;20064;-59
2021/09/22 15:42:56;;;;;;;1.98;1.88;;;22.00;55.60;;;;;;5032090;28;20042;-59
2021/09/22 15:45:22;;;;;;;2.03;1.80;;;22.00;55.50;;;;;;5030320;28;20119;-59
2021/09/22 15:47:49;;;;;;;2.25;1.75;;;22.10;55.50;;;;;;5025683;28;20069;-60
2021/09/22 15:50:16;;;;;;;2.17;1.90;;;22.10;55.50;;;;;;5036341;28;20029;-59
2021/09/22 15:52:42;;;;;;;2.03;1.80;;;22.20;55.50;;;;;;5026951;28;20062;-60
2021/09/22 15:55:09;;;;;;;1.73;1.58;;;22.20;55.40;;;;;;5027348;28;20048;-59
2021/09/22 15:57:35;;;;;;;1.60;1.50;;;22.20;55.30;;;;;;5035611;28;20032;-60
2021/09/22 16:00:01;;;;;;;1.85;1.70;;;22.20;55.20;;;;;;5036510;28;20038;-59
2021/09/22 16:02:27;;;;;;;2.40;2.13;;;22.30;55.30;;;;;;5029028;28;20407;-59
2021/09/22 16:04:52;;;;;;;2.28;1.85;;;22.30;55.90;;;;;;5025690;28;20468;-60
2021/09/22 16:07:18;;;;;;;2.13;1.52;;;22.30;55.20;;;;;;5025392;28;20092;-59
2021/09/22 16:09:44;;;;;;;2.70;1.52;;;22.30;55.20;;;;;;5027985;28;20047;-59
2021/09/22 16:12:09;;;;;;;1.83;1.70;;;22.40;55.20;;;;;;5027566;28;20069;-59
2021/09/22 16:14:36;;;;;;;1.50;1.40;;;22.40;55.20;;;;;;5029377;28;20057;-59